Thunder radar more information blitzortung!


Rain radar  rain snow radar



Ingen spesiell oppmerksomhet nødvendig.    Det er ingen advarsler

Nearby METAR Reports

   
ENZV - Stavanger
Oppdatert: Jul 10 2020 1:50 am
Klart  
Klart  
   Vind: NV 4.6 m/s
Vind: NV 4.6 m/s
Temperatur: 11°C
Duggpunkt: 8°C
Luftfuktighet: 82%
Barometer: 1011 hPa
Sikt: More than 10 km
Detaljer skyer: Klart ft
ENZV 092350Z 32009KT CAVOK 11/08 Q1011
ENCN - Kristiansand
Oppdatert: Jul 10 2020 1:50 am
Klart  
Klart  
   Vind: NØ 2.1 m/s
Vind: NØ 2.1 m/s
Temperatur: 8°C
Wind Chill: 7°C
Duggpunkt: 6°C
Luftfuktighet: 87%
Barometer: 1009 hPa
Skyer: Clear
Sikt: More than 10 km
Detaljer skyer: Klart ft
ENCN 092350Z AUTO 05004KT 9999 NCD 08/06 Q1009
ENBR - Bergen
Oppdatert: Jul 10 2020 1:50 am
Klart  
Klart  
   Vind: NNØ 2.1 m/s
Vind: NNØ 2.1 m/s
Temperatur: 9°C
Wind Chill: 8°C
Duggpunkt: 8°C
Luftfuktighet: 94%
Barometer: 1011 hPa
Sikt: More than 10 km
Detaljer skyer: Klart ft
ENBR 092350Z 02004KT CAVOK 09/08 Q1011 RMK WIND 1200FT 35009KT
ENGM - Oslo
Oppdatert: Jul 10 2020 1:50 am
Klart  
Klart  
   Vind: Nord 1 m/s
Vind: Nord 1 m/s
Temperatur: 11°C
Duggpunkt: 8°C
Luftfuktighet: 82%
Barometer: 1009 hPa
Sikt: More than 10 km
Detaljer skyer: Klart ft
ENGM 092350Z 36002KT CAVOK 11/08 Q1009
ENVA - Trondheim
Oppdatert: Jul 10 2020 1:50 am
For det meste Overskyet  
For det meste Overskyet  
   Vind: SØ 3.6 m/s
Vind: SØ 3.6 m/s
Temperatur: 8°C
Wind Chill: 6°C
Duggpunkt: 7°C
Luftfuktighet: 93%
Barometer: 1011 hPa
Skyer: Mostly Cloudy
Sikt: More than 10 km
Detaljer skyer: For det meste Overskyet 3700 ft,
For det meste Overskyet 6200 ft
ENVA 092350Z AUTO 13007KT 9999 BKN037/// BKN062/// 08/07 Q1011 RMK WIND 670FT 17005KT
ENTC - Tromsø
Oppdatert: Jul 10 2020 1:50 am
For det meste Overskyet  
For det meste Overskyet  
   Vind: NNØ 2.6 m/s
Vind: NNØ 2.6 m/s
Temperatur: 9°C
Wind Chill: 8°C
Duggpunkt: 6°C
Luftfuktighet: 82%
Barometer: 1008 hPa
Skyer: Mostly Cloudy
Sikt: More than 10 km
Detaljer skyer: Noen skyer 500 ft,
Delvis overskyet 6200 ft,
For det meste Overskyet 7800 ft
ENTC 092350Z 03005KT 9999 FEW005 SCT062 BKN078 09/06 Q1008 RMK WIND 2600FT 01004KT

Script utviklet av  Saratoga-weather.org Tilpasset for tamplaten av  Weerstation Leuven

Du finner vår vær info også på:

European Weather Network

WeatherCloud

Weather Underground

AWEKAS

HAMweather, WeatherForYou, PWS Weather

Utrustning vi bruker:

vær-station
Davis VP2

vær-programmet
Weather Display

Davis VP2

Weather Display